createdAt,value
2023-06-08T00:49:55.666Z,21.10
2023-06-08T00:52:45.587Z,20.90
2023-06-08T00:55:34.895Z,20.90
2023-06-08T00:58:23.639Z,20.90
2023-06-08T01:01:13.553Z,20.90
2023-06-08T01:04:07.222Z,20.70
2023-06-08T01:07:17.805Z,20.70
2023-06-08T01:13:04.922Z,20.40
2023-06-08T01:16:01.849Z,20.10
2023-06-08T01:18:52.989Z,19.60
2023-06-08T01:22:01.917Z,19.50
2023-06-08T01:24:58.020Z,19.40
2023-06-08T01:27:49.458Z,19.30
2023-06-08T01:30:38.108Z,19.40
2023-06-08T01:33:30.249Z,19.60
2023-06-08T01:36:24.296Z,19.60
2023-06-08T01:39:19.525Z,19.30
2023-06-08T01:42:11.826Z,19.30
2023-06-08T01:45:02.572Z,19.50
2023-06-08T01:47:55.553Z,19.60
2023-06-08T01:50:45.902Z,19.70
2023-06-08T01:53:34.667Z,19.70
2023-06-08T01:56:23.203Z,19.70
2023-06-08T01:59:13.138Z,19.40
2023-06-08T02:02:01.614Z,19.40
2023-06-08T02:04:50.136Z,19.40
2023-06-08T02:07:38.948Z,19.60
2023-06-08T02:10:27.531Z,19.70
2023-06-08T02:13:16.617Z,19.70
2023-06-08T02:16:06.712Z,19.60
2023-06-08T02:18:55.240Z,19.60
2023-06-08T02:21:44.492Z,19.70
2023-06-08T02:24:33.015Z,19.70
2023-06-08T02:27:21.667Z,19.80
2023-06-08T02:30:13.978Z,19.80
2023-06-08T02:33:04.525Z,19.90
2023-06-08T02:35:53.125Z,19.90
2023-06-08T02:38:41.587Z,19.80
2023-06-08T02:41:30.160Z,19.80
2023-06-08T02:44:18.670Z,19.90
2023-06-08T02:47:07.520Z,20.00
2023-06-08T02:49:57.537Z,20.00
2023-06-08T02:52:46.516Z,20.00
2023-06-08T02:55:36.224Z,19.90
2023-06-08T02:58:24.902Z,19.90
2023-06-08T03:01:21.415Z,19.70
2023-06-08T03:04:14.089Z,19.50
2023-06-08T03:07:04.277Z,19.50
2023-06-08T03:09:52.840Z,19.50
2023-06-08T03:12:41.388Z,19.40
2023-06-08T03:15:30.908Z,19.40
2023-06-08T03:18:19.483Z,19.40
2023-06-08T03:21:08.907Z,19.30
2023-06-08T03:23:59.084Z,19.10
2023-06-08T03:26:47.745Z,19.00
2023-06-08T03:29:36.333Z,19.00
2023-06-08T03:32:24.776Z,18.90
2023-06-08T03:35:13.193Z,18.80
2023-06-08T03:54:56.681Z,18.70
2023-06-08T03:57:46.720Z,19.10
2023-06-08T04:03:26.097Z,19.50
2023-06-08T04:06:17.924Z,19.70
2023-06-08T04:09:06.629Z,19.80
2023-06-08T04:14:46.320Z,20.00
2023-06-08T04:34:33.117Z,20.40
2023-06-08T04:37:21.668Z,20.60
2023-06-08T04:40:12.181Z,20.70
2023-06-08T04:43:00.915Z,20.80
2023-06-08T04:45:58.765Z,20.80
2023-06-08T04:48:49.819Z,20.90
2023-06-08T04:51:40.850Z,20.90
2023-06-08T04:54:32.312Z,21.00
2023-06-08T04:57:23.593Z,21.00
2023-06-08T05:00:13.917Z,21.00
2023-06-08T05:03:02.694Z,20.90
2023-06-08T05:05:52.856Z,20.80
2023-06-08T05:08:41.375Z,20.70
2023-06-08T05:11:29.906Z,20.60
2023-06-08T05:14:18.468Z,20.60
2023-06-08T05:17:07.026Z,20.60
2023-06-08T05:19:55.568Z,20.60
2023-06-08T05:22:45.550Z,20.60
2023-06-08T05:25:37.984Z,20.90
2023-06-08T05:28:26.838Z,20.70
2023-06-08T05:31:15.550Z,20.70
2023-06-08T05:34:04.211Z,20.60
2023-06-08T05:36:52.861Z,20.60
2023-06-08T05:39:42.752Z,20.70
2023-06-08T05:42:31.271Z,20.70
2023-06-08T05:45:19.729Z,20.80
2023-06-08T05:48:09.737Z,20.90
2023-06-08T05:50:58.399Z,20.90
2023-06-08T05:53:46.926Z,21.00
2023-06-08T05:56:36.825Z,21.10
2023-06-08T06:10:41.181Z,21.50
2023-06-08T06:13:33.018Z,21.60
2023-06-08T06:16:21.572Z,21.60
2023-06-08T06:19:10.111Z,21.40
2023-06-08T06:21:58.613Z,21.50
2023-06-08T06:24:47.165Z,21.60
2023-06-08T06:27:42.167Z,21.70
2023-06-08T06:30:38.890Z,21.70
2023-06-08T06:36:16.463Z,21.90
2023-06-08T06:39:05.600Z,22.20
2023-06-08T06:41:54.113Z,22.40
2023-06-08T06:44:42.597Z,22.50
2023-06-08T06:47:32.612Z,22.30
2023-06-08T06:50:21.140Z,22.40
2023-06-08T06:53:09.647Z,22.60
2023-06-08T06:58:47.539Z,22.80
2023-06-08T07:01:37.308Z,22.70
2023-06-08T07:04:27.521Z,22.70
2023-06-08T07:07:18.592Z,22.90
2023-06-08T07:15:51.269Z,23.30
2023-06-08T07:18:39.763Z,23.50
2023-06-08T07:21:32.874Z,23.40
2023-06-08T07:25:05.730Z,23.40
2023-06-08T07:27:34.656Z,23.40
2023-06-08T07:30:23.173Z,23.50
2023-06-08T07:33:11.690Z,23.50
2023-06-08T07:36:00.802Z,23.50
2023-06-08T07:38:51.891Z,23.70
2023-06-08T07:41:40.589Z,23.70
2023-06-08T07:44:29.174Z,23.80
2023-06-08T07:47:18.426Z,24.00
2023-06-08T07:50:08.090Z,24.20
2023-06-08T07:52:56.789Z,24.30
2023-06-08T07:55:46.691Z,24.40
2023-06-08T07:58:35.753Z,24.60
2023-06-08T08:01:24.536Z,24.70
2023-06-08T08:04:13.237Z,24.70
2023-06-08T08:07:02.362Z,24.50
2023-06-08T08:09:50.848Z,24.50
2023-06-08T08:15:29.726Z,24.20
2023-06-08T08:18:18.231Z,24.20
2023-06-08T08:21:06.815Z,24.20
2023-06-08T08:23:55.464Z,24.20
2023-06-08T08:26:44.011Z,24.20
2023-06-08T08:29:33.959Z,24.30
2023-06-08T08:32:22.441Z,24.30
2023-06-08T08:35:12.018Z,24.40
2023-06-08T08:38:00.770Z,24.50
2023-06-08T08:40:50.814Z,24.60
2023-06-08T08:43:52.786Z,24.60
2023-06-08T08:46:44.988Z,24.70
2023-06-08T08:49:37.603Z,24.80
2023-06-08T08:52:30.338Z,24.70
2023-06-08T08:55:34.011Z,24.70
2023-06-08T08:58:24.023Z,24.80
2023-06-08T09:01:13.029Z,24.70
2023-06-08T09:04:04.117Z,24.70
2023-06-08T09:06:56.784Z,25.00
2023-06-08T09:10:26.733Z,24.90
2023-06-08T09:13:22.694Z,25.00
2023-06-08T09:16:12.512Z,25.00
2023-06-08T09:19:08.444Z,24.90
2023-06-08T09:21:57.442Z,24.90
2023-06-08T09:24:52.136Z,24.90
2023-06-08T09:27:40.918Z,24.70
2023-06-08T09:30:29.757Z,24.70
2023-06-08T09:33:26.252Z,24.70
2023-06-08T09:36:17.780Z,24.80
2023-06-08T09:39:08.218Z,24.90
2023-06-08T09:41:59.571Z,25.00
2023-06-08T09:44:48.082Z,25.10
2023-06-08T09:47:36.643Z,25.10
2023-06-08T09:50:25.284Z,25.30
2023-06-08T09:53:16.905Z,25.30
2023-06-08T09:56:07.313Z,25.20
2023-06-08T09:58:58.590Z,25.20
2023-06-08T10:01:52.372Z,25.30
2023-06-08T10:04:45.963Z,25.30
2023-06-08T10:07:37.380Z,25.40
2023-06-08T10:10:33.266Z,25.50
2023-06-08T10:13:22.181Z,25.60
2023-06-08T10:16:11.418Z,25.60
2023-06-08T10:19:00.935Z,25.70
2023-06-08T10:21:50.883Z,25.70
2023-06-08T10:24:44.482Z,25.70
2023-06-08T10:27:39.303Z,25.70
2023-06-08T10:30:30.085Z,25.80
2023-06-08T10:33:21.252Z,26.00
2023-06-08T10:36:12.009Z,26.10
2023-06-08T10:39:01.396Z,26.20
2023-06-08T10:41:56.884Z,26.20
2023-06-08T10:44:55.605Z,26.30
2023-06-08T10:47:45.167Z,26.40
2023-06-08T10:50:38.875Z,26.50
2023-06-08T10:53:43.217Z,26.60
2023-06-08T10:56:43.456Z,26.80
2023-06-08T10:59:36.578Z,26.80
2023-06-08T11:02:29.299Z,26.90
2023-06-08T11:05:18.584Z,27.00
2023-06-08T11:08:09.029Z,27.00
2023-06-08T11:10:57.898Z,27.10
2023-06-08T11:16:35.359Z,27.40
2023-06-08T11:19:26.528Z,27.50
2023-06-08T11:22:15.354Z,27.70
2023-06-08T11:30:45.155Z,28.10
2023-06-08T11:33:34.498Z,28.20
2023-06-08T14:20:42.346Z,27.70
2023-06-08T14:29:11.181Z,27.20
2023-06-08T14:31:59.737Z,27.20
2023-06-08T14:34:48.574Z,27.30
2023-06-08T14:37:37.172Z,27.40
2023-06-08T14:40:25.816Z,27.60
2023-06-08T14:43:15.696Z,27.60
2023-06-08T14:46:04.195Z,27.60
2023-06-08T14:48:52.874Z,27.60
2023-06-08T14:51:41.498Z,27.60
2023-06-08T14:54:30.276Z,27.80
2023-06-08T14:57:18.912Z,27.80
2023-06-08T15:00:11.117Z,27.60
2023-06-08T15:03:00.061Z,27.60
2023-06-08T15:05:48.685Z,27.40
2023-06-08T15:08:37.382Z,27.40
2023-06-08T15:11:26.383Z,27.40
2023-06-08T15:14:14.835Z,27.50
2023-06-08T15:17:05.252Z,27.60
2023-06-08T15:19:53.801Z,27.70
2023-06-08T15:22:42.429Z,27.40
2023-06-08T15:25:31.574Z,27.40
2023-06-08T15:28:20.857Z,27.20
2023-06-08T15:31:09.508Z,27.10
2023-06-08T15:33:59.603Z,27.10
2023-06-08T15:36:48.227Z,27.00
2023-06-08T15:39:36.780Z,27.00
2023-06-08T15:42:25.276Z,27.00
2023-06-08T15:45:13.874Z,26.90
2023-06-08T15:48:02.676Z,26.80
2023-06-08T15:50:52.816Z,26.80
2023-06-08T15:53:41.310Z,26.70
2023-06-08T15:56:30.168Z,26.70
2023-06-08T15:59:18.822Z,26.70
2023-06-08T16:02:07.721Z,26.70
2023-06-08T16:04:56.589Z,26.80
2023-06-08T16:07:46.502Z,27.10
2023-06-08T16:10:34.971Z,27.30
2023-06-08T16:13:23.505Z,27.30
2023-06-08T16:16:12.137Z,27.20
2023-06-08T16:19:00.724Z,27.00
2023-06-08T16:21:49.282Z,27.00
2023-06-08T16:24:41.240Z,27.10
2023-06-08T16:27:30.044Z,27.10
2023-06-08T16:30:18.613Z,27.10
2023-06-08T16:33:07.207Z,27.00
2023-06-08T16:35:55.729Z,26.90
2023-06-08T16:38:46.215Z,26.80
2023-06-08T16:41:36.415Z,26.90
2023-06-08T16:44:25.064Z,26.80
2023-06-08T16:47:13.792Z,26.80
2023-06-08T16:50:02.412Z,26.80
2023-06-08T16:52:52.450Z,26.70
2023-06-08T16:55:40.939Z,26.70
2023-06-08T16:58:31.271Z,26.60
2023-06-08T17:01:19.926Z,26.50
2023-06-08T17:04:08.493Z,26.40
2023-06-08T17:06:57.508Z,26.30
2023-06-08T17:09:46.257Z,26.30
2023-06-08T17:12:34.835Z,26.50
2023-06-08T17:15:24.814Z,26.50
2023-06-08T17:18:13.424Z,26.50
2023-06-08T17:21:03.014Z,26.40
2023-06-08T17:23:53.241Z,26.40
2023-06-08T17:26:42.161Z,26.40
2023-06-08T17:29:31.076Z,26.40
2023-06-08T17:32:20.935Z,26.50
2023-06-08T17:35:10.267Z,26.50
2023-06-08T17:37:59.015Z,26.50
2023-06-08T17:40:47.603Z,26.50
2023-06-08T17:43:48.168Z,26.60
2023-06-08T17:46:37.032Z,26.50
2023-06-08T17:49:27.033Z,26.50
2023-06-08T17:52:15.608Z,26.50
2023-06-08T17:55:06.341Z,26.40
2023-06-08T17:57:55.523Z,26.40
2023-06-08T18:00:44.129Z,26.30
2023-06-08T18:03:32.706Z,26.20
2023-06-08T18:06:25.812Z,26.10
2023-06-08T18:09:15.034Z,26.10
2023-06-08T18:12:03.843Z,26.10
2023-06-08T18:14:52.365Z,26.00
2023-06-08T18:17:41.376Z,26.10
2023-06-08T18:20:30.156Z,26.10
2023-06-08T18:23:21.018Z,25.90
2023-06-08T18:28:58.530Z,25.80
2023-06-08T18:31:47.245Z,25.80
2023-06-08T18:34:35.963Z,25.70
2023-06-08T18:37:24.478Z,25.80
2023-06-08T18:40:15.029Z,25.80
2023-06-08T18:43:03.956Z,25.70
2023-06-08T18:45:52.946Z,25.80
2023-06-08T18:48:41.538Z,25.80
2023-06-08T18:51:30.225Z,25.80
2023-06-08T18:54:19.635Z,25.80
2023-06-08T18:57:09.936Z,25.80
2023-06-08T18:59:58.507Z,25.70
2023-06-08T19:19:41.789Z,25.30
2023-06-08T19:22:30.409Z,25.20
2023-06-08T19:25:19.201Z,25.20
2023-06-08T19:28:07.890Z,25.20
2023-06-08T19:30:57.852Z,25.20
2023-06-08T19:39:24.138Z,24.90
2023-06-08T19:42:12.662Z,24.80
2023-06-08T19:45:01.258Z,24.80
2023-06-08T19:47:51.411Z,24.70
2023-06-08T19:50:40.042Z,24.50
2023-06-08T19:53:28.706Z,24.40
2023-06-08T19:56:17.869Z,24.30
2023-06-08T19:59:06.476Z,24.30
2023-06-08T20:01:55.331Z,24.30
2023-06-08T20:04:45.307Z,24.30
2023-06-08T20:07:35.646Z,24.30
2023-06-08T20:10:24.228Z,24.30
2023-06-08T20:13:12.993Z,24.20
2023-06-08T20:16:01.522Z,24.20
2023-06-08T20:18:52.046Z,24.10
2023-06-08T20:21:43.637Z,24.00
2023-06-08T20:25:03.690Z,24.00
2023-06-08T20:30:41.093Z,23.90
2023-06-08T20:33:29.688Z,23.90
2023-06-08T20:36:18.469Z,23.90
2023-06-08T20:44:46.442Z,23.70
2023-06-08T20:47:35.006Z,23.60
2023-06-08T20:50:23.665Z,23.60
2023-06-08T20:53:12.197Z,23.50
2023-06-08T20:56:02.812Z,23.50
2023-06-08T20:58:51.713Z,23.40
2023-06-08T21:01:40.252Z,23.40
2023-06-08T21:12:59.533Z,22.50
2023-06-08T21:15:48.119Z,22.60
2023-06-08T21:18:36.667Z,22.70
2023-06-08T21:21:25.176Z,22.80
2023-06-08T21:24:13.643Z,22.70
2023-06-08T21:27:02.248Z,22.70
2023-06-08T21:29:52.223Z,22.70
2023-06-08T21:32:49.900Z,22.60
2023-06-08T21:41:16.897Z,22.10
2023-06-08T21:44:05.963Z,22.10
2023-06-08T21:46:55.984Z,22.00
2023-06-08T21:49:44.571Z,22.00
2023-06-08T21:52:33.082Z,22.00
2023-06-08T21:55:21.570Z,21.90
2023-06-08T21:58:10.108Z,21.80
2023-06-08T22:00:58.757Z,21.80
2023-06-08T22:03:49.042Z,21.90
2023-06-08T22:06:37.859Z,21.70
2023-06-08T22:09:27.112Z,21.70
2023-06-08T22:12:15.774Z,21.80
2023-06-08T22:15:05.260Z,21.70
2023-06-08T22:17:54.036Z,21.80
